DAL37 EGLL-KATL
Flight info
| Callsign | DAL37 |
|---|---|
| Flight time | N/A |
| Altitude | 36000 |
| Route | ULTIB T420 TNT UL28 PENIL M144 BAGSO DCT DOGAL/M081F360 DCT 54N020W 53N030W 51N040W 49N050W DCT JOOPY/N0466F360 N328A TUSKY DCT BOS DCT BAF Q448 PTW J48 MOL DCT FLASK OZZZI1 |
| Aircraft | B764/H-SDE3FGHIM3RWXY/LB1 |
Departure
| Time | N/A |
|---|---|
| Airport | London Heathrow Airport (EGLL) |
Arrival
| Time | 2026-05-08 07:29 |
|---|---|
| Airport | Hartsfield Jackson Atlanta International Airport (KATL) |
| Time | Latitude | Longitude | Altitude | Speed | Heading |
|---|---|---|---|---|---|
| 2026-05-08 04:04 | 45.93749 | -60.84637 | 35674 ft | 411 kts | 238° |
| 2026-05-08 04:04 | 45.92472 | -60.88353 | 35676 ft | 411 kts | 238° |
| 2026-05-08 04:05 | 45.89941 | -60.95696 | 35672 ft | 411 kts | 238° |
| 2026-05-08 04:05 | 45.87385 | -61.03087 | 35662 ft | 411 kts | 238° |
| 2026-05-08 04:06 | 45.84838 | -61.10436 | 35669 ft | 412 kts | 238° |
| 2026-05-08 04:06 | 45.82285 | -61.17782 | 35671 ft | 412 kts | 238° |
| 2026-05-08 04:07 | 45.79725 | -61.25125 | 35688 ft | 412 kts | 238° |
| 2026-05-08 04:07 | 45.77151 | -61.32492 | 35686 ft | 412 kts | 238° |
| 2026-05-08 04:08 | 45.74565 | -61.39866 | 35684 ft | 412 kts | 238° |
| 2026-05-08 04:08 | 45.71990 | -61.47193 | 35693 ft | 413 kts | 238° |
| 2026-05-08 04:09 | 45.69414 | -61.54504 | 35668 ft | 413 kts | 238° |
| 2026-05-08 04:09 | 45.66813 | -61.61862 | 35683 ft | 414 kts | 238° |
| 2026-05-08 04:10 | 45.64191 | -61.69260 | 35684 ft | 415 kts | 238° |
| 2026-05-08 04:10 | 45.61581 | -61.76605 | 35699 ft | 416 kts | 238° |
| 2026-05-08 04:11 | 45.58956 | -61.83973 | 35703 ft | 417 kts | 238° |
| 2026-05-08 04:11 | 45.56318 | -61.91355 | 35708 ft | 418 kts | 238° |
| 2026-05-08 04:12 | 45.53673 | -61.98738 | 35704 ft | 418 kts | 238° |
| 2026-05-08 04:12 | 45.51010 | -62.06150 | 35709 ft | 419 kts | 238° |
| 2026-05-08 04:13 | 45.48341 | -62.13560 | 35706 ft | 420 kts | 238° |
| 2026-05-08 04:13 | 45.45671 | -62.20949 | 35715 ft | 421 kts | 238° |
| 2026-05-08 04:14 | 45.42989 | -62.28354 | 35712 ft | 421 kts | 238° |
| 2026-05-08 04:14 | 45.40304 | -62.35747 | 35715 ft | 421 kts | 238° |
| 2026-05-08 04:15 | 45.37598 | -62.43175 | 35709 ft | 421 kts | 238° |
| 2026-05-08 04:15 | 45.34901 | -62.50563 | 35714 ft | 422 kts | 238° |
| 2026-05-08 04:16 | 45.32640 | -62.56737 | 35720 ft | 421 kts | 238° |
| 2026-05-08 04:16 | 45.29932 | -62.64115 | 35719 ft | 422 kts | 238° |
| 2026-05-08 04:17 | 45.27198 | -62.71543 | 35716 ft | 422 kts | 238° |
| 2026-05-08 04:17 | 45.24475 | -62.78922 | 35717 ft | 422 kts | 238° |
| 2026-05-08 04:18 | 45.21753 | -62.86278 | 35724 ft | 422 kts | 238° |
| 2026-05-08 04:18 | 45.19014 | -62.93659 | 35722 ft | 423 kts | 238° |
| 2026-05-08 04:19 | 45.16268 | -63.01041 | 35721 ft | 422 kts | 238° |
| 2026-05-08 04:19 | 45.13523 | -63.08399 | 35717 ft | 423 kts | 238° |
| 2026-05-08 04:20 | 45.10770 | -63.15761 | 35722 ft | 423 kts | 238° |
| 2026-05-08 04:20 | 45.07990 | -63.23173 | 35718 ft | 424 kts | 238° |
| 2026-05-08 04:21 | 45.05228 | -63.30516 | 35717 ft | 425 kts | 238° |
| 2026-05-08 04:21 | 45.02440 | -63.37911 | 35710 ft | 426 kts | 238° |
| 2026-05-08 04:22 | 44.99649 | -63.45295 | 35708 ft | 426 kts | 238° |
| 2026-05-08 04:22 | 44.96839 | -63.52707 | 35707 ft | 427 kts | 238° |
| 2026-05-08 04:23 | 44.94033 | -63.60088 | 35704 ft | 427 kts | 237° |
| 2026-05-08 04:23 | 44.91214 | -63.67484 | 35708 ft | 428 kts | 238° |
| 2026-05-08 04:24 | 44.88389 | -63.74875 | 35713 ft | 428 kts | 238° |
| 2026-05-08 04:24 | 44.85548 | -63.82293 | 35707 ft | 429 kts | 238° |
| 2026-05-08 04:25 | 44.82717 | -63.89659 | 35712 ft | 429 kts | 238° |
| 2026-05-08 04:25 | 44.79862 | -63.97074 | 35711 ft | 431 kts | 238° |
| 2026-05-08 04:26 | 44.76995 | -64.04494 | 35714 ft | 431 kts | 238° |
| 2026-05-08 04:26 | 44.74130 | -64.11893 | 35706 ft | 432 kts | 238° |
| 2026-05-08 04:27 | 44.71251 | -64.19305 | 35708 ft | 432 kts | 238° |
| 2026-05-08 04:27 | 44.68360 | -64.26731 | 35711 ft | 434 kts | 238° |
| 2026-05-08 04:28 | 44.65462 | -64.34154 | 35708 ft | 434 kts | 238° |
| 2026-05-08 04:28 | 44.62552 | -64.41592 | 35709 ft | 435 kts | 238° |
| 2026-05-08 04:29 | 44.59619 | -64.49063 | 35706 ft | 435 kts | 238° |
| 2026-05-08 04:29 | 44.56678 | -64.56535 | 35709 ft | 436 kts | 238° |
| 2026-05-08 04:30 | 44.53753 | -64.63951 | 35713 ft | 437 kts | 238° |
| 2026-05-08 04:30 | 44.50788 | -64.71445 | 35711 ft | 438 kts | 239° |
| 2026-05-08 04:31 | 44.47821 | -64.78920 | 35719 ft | 438 kts | 239° |
| 2026-05-08 04:31 | 44.44872 | -64.86339 | 35719 ft | 439 kts | 239° |
| 2026-05-08 04:32 | 44.41889 | -64.93820 | 35728 ft | 439 kts | 239° |
| 2026-05-08 04:32 | 44.38897 | -65.01302 | 35729 ft | 440 kts | 239° |
| 2026-05-08 04:33 | 44.35910 | -65.08755 | 35730 ft | 440 kts | 239° |
| 2026-05-08 04:33 | 44.32909 | -65.16218 | 35732 ft | 441 kts | 239° |
| 2026-05-08 04:34 | 44.29916 | -65.23645 | 35737 ft | 441 kts | 239° |
| 2026-05-08 04:34 | 44.26878 | -65.31163 | 35737 ft | 441 kts | 239° |
| 2026-05-08 04:35 | 44.23879 | -65.38568 | 35721 ft | 441 kts | 239° |
| 2026-05-08 04:35 | 44.20843 | -65.46036 | 35736 ft | 441 kts | 239° |
| 2026-05-08 04:36 | 44.17802 | -65.53507 | 35736 ft | 441 kts | 239° |
| 2026-05-08 04:36 | 44.14768 | -65.60936 | 35746 ft | 442 kts | 239° |
| 2026-05-08 04:37 | 44.11720 | -65.68381 | 35740 ft | 442 kts | 239° |
| 2026-05-08 04:37 | 44.08661 | -65.75832 | 35740 ft | 443 kts | 240° |
| 2026-05-08 04:38 | 44.05611 | -65.83244 | 35740 ft | 443 kts | 240° |
| 2026-05-08 04:38 | 44.02555 | -65.90650 | 35750 ft | 443 kts | 240° |
| 2026-05-08 04:39 | 43.99491 | -65.98055 | 35744 ft | 443 kts | 240° |
| 2026-05-08 04:39 | 43.96417 | -66.05466 | 35748 ft | 443 kts | 240° |
| 2026-05-08 04:40 | 43.93330 | -66.12889 | 35756 ft | 442 kts | 240° |
| 2026-05-08 04:40 | 43.90247 | -66.20283 | 35761 ft | 442 kts | 240° |
| 2026-05-08 04:41 | 43.87172 | -66.27639 | 35737 ft | 442 kts | 240° |
| 2026-05-08 04:41 | 43.84082 | -66.35012 | 35757 ft | 442 kts | 240° |
| 2026-05-08 04:42 | 43.80973 | -66.42413 | 35749 ft | 442 kts | 241° |
| 2026-05-08 04:42 | 43.77872 | -66.49771 | 35755 ft | 442 kts | 241° |
| 2026-05-08 04:43 | 43.74766 | -66.57126 | 35752 ft | 442 kts | 241° |
| 2026-05-08 04:43 | 43.71670 | -66.64438 | 35764 ft | 442 kts | 241° |
| 2026-05-08 04:44 | 43.68563 | -66.71759 | 35756 ft | 442 kts | 241° |
| 2026-05-08 04:44 | 43.65447 | -66.79080 | 35767 ft | 442 kts | 241° |
| 2026-05-08 04:45 | 43.62323 | -66.86403 | 35765 ft | 442 kts | 241° |
| 2026-05-08 04:45 | 43.59202 | -66.93699 | 35773 ft | 442 kts | 242° |
| 2026-05-08 04:46 | 43.56249 | -67.01206 | 35773 ft | 441 kts | 245° |
| 2026-05-08 04:46 | 43.53969 | -67.09042 | 35786 ft | 440 kts | 250° |
| 2026-05-08 04:47 | 43.51916 | -67.16327 | 35776 ft | 440 kts | 250° |
| 2026-05-08 04:47 | 43.49694 | -67.24221 | 35790 ft | 440 kts | 250° |
| 2026-05-08 04:48 | 43.47840 | -67.30780 | 35793 ft | 440 kts | 250° |
| 2026-05-08 04:48 | 43.45610 | -67.38644 | 35791 ft | 440 kts | 250° |
| 2026-05-08 04:49 | 43.43386 | -67.46462 | 35793 ft | 439 kts | 250° |
| 2026-05-08 04:49 | 43.41155 | -67.54284 | 35795 ft | 439 kts | 250° |
| 2026-05-08 04:50 | 43.38920 | -67.62091 | 35799 ft | 438 kts | 250° |
| 2026-05-08 04:50 | 43.36697 | -67.69832 | 35797 ft | 437 kts | 250° |
| 2026-05-08 04:51 | 43.34452 | -67.77629 | 35803 ft | 436 kts | 250° |
| 2026-05-08 04:51 | 43.32220 | -67.85354 | 35804 ft | 435 kts | 250° |
| 2026-05-08 04:52 | 43.29983 | -67.93072 | 35809 ft | 435 kts | 250° |
| 2026-05-08 04:52 | 43.27753 | -68.00744 | 35806 ft | 434 kts | 251° |
| 2026-05-08 04:53 | 43.25496 | -68.08485 | 35808 ft | 433 kts | 251° |
| 2026-05-08 04:53 | 43.23260 | -68.16130 | 35813 ft | 432 kts | 251° |
| 2026-05-08 04:54 | 43.21018 | -68.23776 | 35813 ft | 431 kts | 251° |
| 2026-05-08 04:54 | 43.18783 | -68.31373 | 35810 ft | 430 kts | 251° |
| 2026-05-08 04:55 | 43.16536 | -68.38989 | 35818 ft | 430 kts | 251° |
| 2026-05-08 04:55 | 43.14291 | -68.46573 | 35818 ft | 429 kts | 251° |
| 2026-05-08 04:56 | 43.12053 | -68.54110 | 35818 ft | 428 kts | 251° |
| 2026-05-08 04:56 | 43.09798 | -68.61688 | 35820 ft | 427 kts | 251° |
| 2026-05-08 04:57 | 43.07553 | -68.69205 | 35821 ft | 426 kts | 251° |
| 2026-05-08 04:57 | 43.05326 | -68.76644 | 35820 ft | 425 kts | 251° |
| 2026-05-08 04:58 | 43.03071 | -68.84149 | 35821 ft | 424 kts | 251° |
| 2026-05-08 04:58 | 43.00835 | -68.91574 | 35823 ft | 423 kts | 251° |
| 2026-05-08 04:59 | 42.98598 | -68.98982 | 35824 ft | 422 kts | 251° |
| 2026-05-08 04:59 | 42.96355 | -69.06386 | 35829 ft | 421 kts | 252° |
| 2026-05-08 05:00 | 42.94110 | -69.13773 | 35839 ft | 420 kts | 252° |
| 2026-05-08 05:00 | 42.91864 | -69.21141 | 35832 ft | 419 kts | 252° |
| 2026-05-08 05:01 | 42.89642 | -69.28423 | 35836 ft | 418 kts | 252° |
| 2026-05-08 05:01 | 42.87394 | -69.35753 | 35833 ft | 418 kts | 252° |
| 2026-05-08 05:02 | 42.85136 | -69.43107 | 35834 ft | 418 kts | 252° |
| 2026-05-08 05:02 | 42.82894 | -69.50380 | 35839 ft | 418 kts | 251° |
| 2026-05-08 05:03 | 42.80636 | -69.57694 | 35839 ft | 417 kts | 251° |
| 2026-05-08 05:03 | 42.78376 | -69.64989 | 35839 ft | 417 kts | 251° |
| 2026-05-08 05:04 | 42.76110 | -69.72277 | 35837 ft | 416 kts | 251° |
| 2026-05-08 05:04 | 42.73861 | -69.79501 | 35845 ft | 417 kts | 251° |
| 2026-05-08 05:05 | 42.71584 | -69.86788 | 35850 ft | 416 kts | 251° |
| 2026-05-08 05:05 | 42.69331 | -69.93977 | 35848 ft | 417 kts | 251° |
| 2026-05-08 05:06 | 42.67056 | -70.01222 | 35848 ft | 416 kts | 251° |
| 2026-05-08 05:06 | 42.64783 | -70.08440 | 35847 ft | 416 kts | 251° |
| 2026-05-08 05:07 | 42.62494 | -70.15686 | 35843 ft | 416 kts | 251° |
| 2026-05-08 05:07 | 42.60212 | -70.22893 | 35841 ft | 416 kts | 251° |
| 2026-05-08 05:08 | 42.57926 | -70.30092 | 35836 ft | 415 kts | 251° |
| 2026-05-08 05:08 | 42.55633 | -70.37294 | 35840 ft | 415 kts | 251° |
| 2026-05-08 05:09 | 42.53348 | -70.44449 | 35839 ft | 414 kts | 251° |
| 2026-05-08 05:09 | 42.51048 | -70.51636 | 35843 ft | 415 kts | 250° |
| 2026-05-08 05:10 | 42.47655 | -70.62200 | 35852 ft | 415 kts | 250° |
| 2026-05-08 05:11 | 42.45365 | -70.69303 | 35847 ft | 414 kts | 250° |
| 2026-05-08 05:11 | 42.43054 | -70.76460 | 35853 ft | 414 kts | 250° |
| 2026-05-08 05:12 | 42.40748 | -70.83575 | 35861 ft | 414 kts | 250° |
| 2026-05-08 05:12 | 42.38686 | -70.89928 | 35867 ft | 414 kts | 250° |
| 2026-05-08 05:13 | 42.36582 | -70.97134 | 35868 ft | 410 kts | 256° |
| 2026-05-08 05:13 | 42.35181 | -71.04576 | 35862 ft | 410 kts | 259° |
| 2026-05-08 05:14 | 42.34345 | -71.12193 | 35865 ft | 409 kts | 262° |
| 2026-05-08 05:14 | 42.33525 | -71.19814 | 35872 ft | 409 kts | 262° |
| 2026-05-08 05:15 | 42.32707 | -71.27433 | 35868 ft | 409 kts | 262° |
| 2026-05-08 05:15 | 42.31880 | -71.35070 | 35872 ft | 409 kts | 262° |
| 2026-05-08 05:16 | 42.31050 | -71.42680 | 35871 ft | 409 kts | 262° |
| 2026-05-08 05:16 | 42.30215 | -71.50304 | 35875 ft | 409 kts | 262° |
| 2026-05-08 05:17 | 42.29378 | -71.57877 | 35873 ft | 409 kts | 262° |
| 2026-05-08 05:17 | 42.28534 | -71.65486 | 35879 ft | 409 kts | 261° |
| 2026-05-08 05:18 | 42.27685 | -71.73084 | 35873 ft | 409 kts | 261° |
| 2026-05-08 05:18 | 42.26831 | -71.80677 | 35879 ft | 409 kts | 261° |
| 2026-05-08 05:19 | 42.25974 | -71.88248 | 35879 ft | 409 kts | 261° |
| 2026-05-08 05:19 | 42.25107 | -71.95865 | 35875 ft | 409 kts | 261° |
| 2026-05-08 05:20 | 42.24243 | -72.03407 | 35874 ft | 409 kts | 261° |
| 2026-05-08 05:20 | 42.23363 | -72.11048 | 35880 ft | 409 kts | 261° |
| 2026-05-08 05:21 | 42.22487 | -72.18607 | 35877 ft | 410 kts | 261° |
| 2026-05-08 05:21 | 42.21595 | -72.26256 | 35868 ft | 410 kts | 261° |
| 2026-05-08 05:22 | 42.20709 | -72.33810 | 35867 ft | 410 kts | 261° |
| 2026-05-08 05:22 | 42.19960 | -72.40157 | 35871 ft | 411 kts | 261° |
| 2026-05-08 05:23 | 42.19056 | -72.47777 | 35864 ft | 411 kts | 261° |
| 2026-05-08 05:23 | 42.18148 | -72.55406 | 35868 ft | 411 kts | 260° |
| 2026-05-08 05:24 | 42.17239 | -72.62978 | 35866 ft | 411 kts | 260° |
| 2026-05-08 05:24 | 42.15731 | -72.70396 | 35931 ft | 415 kts | 246° |
| 2026-05-08 05:25 | 42.12820 | -72.77099 | 35910 ft | 418 kts | 242° |
| 2026-05-08 05:25 | 42.09284 | -72.83452 | 35898 ft | 423 kts | 237° |
| 2026-05-08 05:26 | 42.05664 | -72.89648 | 35885 ft | 423 kts | 237° |
| 2026-05-08 05:26 | 42.01996 | -72.95893 | 35889 ft | 424 kts | 237° |
| 2026-05-08 05:27 | 41.98332 | -73.02122 | 35898 ft | 425 kts | 237° |
| 2026-05-08 05:27 | 41.93951 | -73.07640 | 35905 ft | 437 kts | 226° |
| 2026-05-08 05:28 | 41.88934 | -73.12399 | 35906 ft | 446 kts | 220° |
| 2026-05-08 05:28 | 41.83694 | -73.16796 | 35908 ft | 447 kts | 221° |
| 2026-05-08 05:29 | 41.78418 | -73.21212 | 35898 ft | 446 kts | 221° |
| 2026-05-08 05:29 | 41.75742 | -73.23491 | 36098 ft | 461 kts | 217° |
| 2026-05-08 05:29 | 41.72987 | -73.25739 | 36004 ft | 463 kts | 217° |
| 2026-05-08 05:30 | 41.67639 | -73.30436 | 35929 ft | 457 kts | 224° |
| 2026-05-08 05:30 | 41.62944 | -73.36120 | 35915 ft | 453 kts | 231° |
| 2026-05-08 05:31 | 41.58824 | -73.42496 | 35918 ft | 452 kts | 232° |
| 2026-05-08 05:31 | 41.54704 | -73.48830 | 35905 ft | 452 kts | 232° |
| 2026-05-08 05:32 | 41.50567 | -73.55169 | 35900 ft | 452 kts | 232° |
| 2026-05-08 05:32 | 41.46416 | -73.61519 | 35904 ft | 453 kts | 232° |
| 2026-05-08 05:33 | 41.42351 | -73.67722 | 35904 ft | 453 kts | 232° |
| 2026-05-08 05:33 | 41.38202 | -73.74040 | 35899 ft | 453 kts | 232° |
| 2026-05-08 05:34 | 41.34405 | -73.79867 | 35889 ft | 454 kts | 231° |
| 2026-05-08 05:34 | 41.30171 | -73.86071 | 35883 ft | 453 kts | 232° |
| 2026-05-08 05:35 | 41.25934 | -73.92320 | 35884 ft | 453 kts | 232° |
| 2026-05-08 05:35 | 41.21694 | -73.98565 | 35896 ft | 453 kts | 232° |
| 2026-05-08 05:36 | 41.17457 | -74.04786 | 35896 ft | 453 kts | 232° |
| 2026-05-08 05:36 | 41.13285 | -74.10976 | 35896 ft | 451 kts | 235° |
| 2026-05-08 05:37 | 41.09309 | -74.17490 | 35898 ft | 452 kts | 234° |
| 2026-05-08 05:37 | 41.05334 | -74.23933 | 35900 ft | 452 kts | 234° |
| 2026-05-08 05:38 | 41.01369 | -74.30341 | 35899 ft | 451 kts | 234° |
| 2026-05-08 05:38 | 40.97394 | -74.36755 | 35893 ft | 452 kts | 234° |
| 2026-05-08 05:39 | 40.93404 | -74.43176 | 35895 ft | 452 kts | 234° |
| 2026-05-08 05:39 | 40.89402 | -74.49605 | 35929 ft | 453 kts | 234° |
| 2026-05-08 05:40 | 40.85386 | -74.56042 | 35930 ft | 453 kts | 234° |
| 2026-05-08 05:40 | 40.81374 | -74.62458 | 35922 ft | 453 kts | 235° |
| 2026-05-08 05:41 | 40.77351 | -74.68879 | 35875 ft | 453 kts | 235° |
| 2026-05-08 05:41 | 40.73323 | -74.75293 | 35873 ft | 453 kts | 235° |
| 2026-05-08 05:42 | 40.69312 | -74.81669 | 35880 ft | 453 kts | 235° |
| 2026-05-08 05:42 | 40.65324 | -74.87993 | 35879 ft | 453 kts | 235° |
| 2026-05-08 05:43 | 40.61283 | -74.94390 | 35878 ft | 453 kts | 235° |
| 2026-05-08 05:43 | 40.57253 | -75.00720 | 35884 ft | 454 kts | 235° |
| 2026-05-08 05:44 | 40.53230 | -75.07144 | 35891 ft | 453 kts | 235° |
| 2026-05-08 05:44 | 40.49211 | -75.13517 | 35910 ft | 453 kts | 235° |
| 2026-05-08 05:45 | 40.45175 | -75.19911 | 35911 ft | 453 kts | 236° |
| 2026-05-08 05:45 | 40.41144 | -75.26285 | 35919 ft | 453 kts | 236° |
| 2026-05-08 05:46 | 40.37121 | -75.32632 | 35925 ft | 454 kts | 236° |
| 2026-05-08 05:46 | 40.33089 | -75.38982 | 35929 ft | 454 kts | 236° |
| 2026-05-08 05:47 | 40.29037 | -75.45348 | 35913 ft | 453 kts | 236° |
| 2026-05-08 05:47 | 40.24987 | -75.51698 | 35907 ft | 453 kts | 236° |
| 2026-05-08 05:48 | 40.21117 | -75.58162 | 35915 ft | 448 kts | 242° |
| 2026-05-08 05:48 | 40.17700 | -75.65026 | 35919 ft | 448 kts | 242° |
| 2026-05-08 05:49 | 40.14294 | -75.71812 | 35913 ft | 448 kts | 242° |
| 2026-05-08 05:49 | 40.10864 | -75.78617 | 35928 ft | 448 kts | 242° |
| 2026-05-08 05:50 | 40.07437 | -75.85396 | 35928 ft | 448 kts | 242° |
| 2026-05-08 05:50 | 40.03985 | -75.92208 | 35934 ft | 448 kts | 242° |
| 2026-05-08 05:51 | 40.00536 | -75.99002 | 35939 ft | 448 kts | 242° |
| 2026-05-08 05:51 | 39.97092 | -76.05767 | 35915 ft | 448 kts | 242° |
| 2026-05-08 05:52 | 39.93656 | -76.12509 | 35908 ft | 448 kts | 242° |
| 2026-05-08 05:52 | 39.90184 | -76.19304 | 35921 ft | 448 kts | 242° |
| 2026-05-08 05:53 | 39.86744 | -76.26022 | 35910 ft | 448 kts | 242° |
| 2026-05-08 05:53 | 39.83289 | -76.32758 | 35913 ft | 447 kts | 242° |
| 2026-05-08 05:54 | 39.80394 | -76.38386 | 35913 ft | 447 kts | 242° |
| 2026-05-08 05:54 | 39.76369 | -76.46197 | 35914 ft | 447 kts | 242° |
| 2026-05-08 05:55 | 39.73470 | -76.51814 | 35928 ft | 447 kts | 242° |
| 2026-05-08 05:55 | 39.70014 | -76.58493 | 35930 ft | 446 kts | 242° |
| 2026-05-08 05:56 | 39.66552 | -76.65170 | 35938 ft | 446 kts | 242° |
| 2026-05-08 05:56 | 39.63077 | -76.71860 | 35947 ft | 445 kts | 242° |
| 2026-05-08 05:57 | 39.59614 | -76.78512 | 35957 ft | 444 kts | 242° |
| 2026-05-08 05:57 | 39.56175 | -76.85101 | 35963 ft | 443 kts | 242° |
| 2026-05-08 05:58 | 39.52712 | -76.91727 | 35965 ft | 442 kts | 242° |
| 2026-05-08 05:58 | 39.48814 | -76.97938 | 35973 ft | 451 kts | 234° |
| 2026-05-08 05:59 | 39.44158 | -77.03517 | 35982 ft | 459 kts | 227° |
| 2026-05-08 05:59 | 39.39225 | -77.08688 | 35969 ft | 457 kts | 228° |
| 2026-05-08 06:00 | 39.34273 | -77.13885 | 35978 ft | 457 kts | 228° |
| 2026-05-08 06:00 | 39.29336 | -77.19063 | 35977 ft | 455 kts | 229° |
| 2026-05-08 06:01 | 39.24651 | -77.23966 | 35982 ft | 455 kts | 229° |
| 2026-05-08 06:01 | 39.19661 | -77.29179 | 35983 ft | 454 kts | 229° |
| 2026-05-08 06:02 | 39.14747 | -77.34302 | 35978 ft | 453 kts | 229° |
| 2026-05-08 06:02 | 39.09853 | -77.39398 | 35996 ft | 451 kts | 229° |
| 2026-05-08 06:03 | 39.04967 | -77.44473 | 35997 ft | 450 kts | 229° |
| 2026-05-08 06:03 | 39.00099 | -77.49522 | 35970 ft | 449 kts | 229° |
| 2026-05-08 06:04 | 38.95213 | -77.54579 | 35973 ft | 448 kts | 229° |
| 2026-05-08 06:04 | 38.90370 | -77.59583 | 35972 ft | 448 kts | 230° |
| 2026-05-08 06:05 | 38.85520 | -77.64586 | 35986 ft | 447 kts | 229° |
| 2026-05-08 06:05 | 38.80669 | -77.69581 | 35989 ft | 446 kts | 230° |
| 2026-05-08 06:06 | 38.75819 | -77.74564 | 35987 ft | 446 kts | 230° |
| 2026-05-08 06:06 | 38.70988 | -77.79520 | 35988 ft | 446 kts | 230° |
| 2026-05-08 06:07 | 38.66203 | -77.84538 | 35977 ft | 438 kts | 234° |
| 2026-05-08 06:07 | 38.62019 | -77.90148 | 36003 ft | 430 kts | 239° |
| 2026-05-08 06:08 | 38.58463 | -77.96203 | 36005 ft | 426 kts | 242° |
| 2026-05-08 06:08 | 38.54904 | -78.02251 | 36003 ft | 425 kts | 242° |
| 2026-05-08 06:09 | 38.51344 | -78.08303 | 35995 ft | 425 kts | 242° |
| 2026-05-08 06:09 | 38.47781 | -78.14343 | 35997 ft | 425 kts | 242° |
| 2026-05-08 06:10 | 38.44227 | -78.20359 | 35991 ft | 425 kts | 242° |
| 2026-05-08 06:10 | 38.40665 | -78.26374 | 35990 ft | 425 kts | 242° |
| 2026-05-08 06:11 | 38.37103 | -78.32381 | 35989 ft | 425 kts | 242° |
| 2026-05-08 06:11 | 38.33523 | -78.38404 | 35999 ft | 425 kts | 242° |
| 2026-05-08 06:12 | 38.29960 | -78.44390 | 35993 ft | 425 kts | 242° |
| 2026-05-08 06:12 | 38.26385 | -78.50385 | 35994 ft | 424 kts | 242° |
| 2026-05-08 06:13 | 38.22826 | -78.56341 | 35994 ft | 424 kts | 242° |
| 2026-05-08 06:13 | 38.19265 | -78.62289 | 36004 ft | 422 kts | 242° |
| 2026-05-08 06:14 | 38.15692 | -78.68249 | 36004 ft | 422 kts | 242° |
| 2026-05-08 06:14 | 38.12135 | -78.74168 | 36026 ft | 423 kts | 242° |
| 2026-05-08 06:15 | 38.08577 | -78.80081 | 36041 ft | 421 kts | 242° |
| 2026-05-08 06:15 | 38.05012 | -78.85992 | 36034 ft | 421 kts | 242° |
| 2026-05-08 06:16 | 38.01448 | -78.91894 | 36022 ft | 420 kts | 242° |
| 2026-05-08 06:16 | 37.97902 | -78.97753 | 36018 ft | 419 kts | 242° |
| 2026-05-08 06:17 | 37.92569 | -79.06546 | 36024 ft | 418 kts | 242° |
| 2026-05-08 06:17 | 37.88947 | -79.12297 | 36041 ft | 425 kts | 238° |
| 2026-05-08 06:18 | 37.84940 | -79.17818 | 36056 ft | 423 kts | 238° |
| 2026-05-08 06:18 | 37.80992 | -79.23313 | 36066 ft | 423 kts | 238° |
| 2026-05-08 06:19 | 37.77033 | -79.28817 | 36070 ft | 422 kts | 238° |
| 2026-05-08 06:19 | 37.73056 | -79.34329 | 36068 ft | 422 kts | 238° |
| 2026-05-08 06:20 | 37.69113 | -79.39790 | 36060 ft | 422 kts | 239° |
| 2026-05-08 06:20 | 37.65147 | -79.45273 | 36054 ft | 422 kts | 239° |
| 2026-05-08 06:21 | 37.61210 | -79.50703 | 36032 ft | 420 kts | 239° |
| 2026-05-08 06:21 | 37.57254 | -79.56155 | 36016 ft | 420 kts | 239° |
| 2026-05-08 06:22 | 37.53298 | -79.61596 | 36022 ft | 419 kts | 239° |
| 2026-05-08 06:22 | 37.49361 | -79.67001 | 36045 ft | 420 kts | 239° |
| 2026-05-08 06:23 | 37.45400 | -79.72429 | 36050 ft | 419 kts | 239° |
| 2026-05-08 06:23 | 37.41460 | -79.77821 | 36054 ft | 418 kts | 239° |
| 2026-05-08 06:24 | 37.37524 | -79.83202 | 36032 ft | 418 kts | 239° |
| 2026-05-08 06:24 | 37.33580 | -79.88577 | 36035 ft | 417 kts | 239° |
| 2026-05-08 06:25 | 37.29642 | -79.93939 | 36052 ft | 417 kts | 239° |
| 2026-05-08 06:25 | 37.25713 | -79.99279 | 36050 ft | 417 kts | 239° |
| 2026-05-08 06:26 | 37.21784 | -80.04612 | 36046 ft | 416 kts | 239° |
| 2026-05-08 06:26 | 37.17858 | -80.09933 | 36050 ft | 416 kts | 239° |
| 2026-05-08 06:27 | 37.14571 | -80.14377 | 36039 ft | 415 kts | 239° |
| 2026-05-08 06:27 | 37.10643 | -80.19683 | 36073 ft | 416 kts | 239° |
| 2026-05-08 06:28 | 37.06697 | -80.25005 | 36058 ft | 416 kts | 239° |
| 2026-05-08 06:28 | 37.02777 | -80.30293 | 36059 ft | 414 kts | 239° |
| 2026-05-08 06:29 | 36.98549 | -80.35313 | 36051 ft | 422 kts | 234° |
| 2026-05-08 06:29 | 36.94191 | -80.40280 | 36037 ft | 421 kts | 235° |
| 2026-05-08 06:30 | 36.89871 | -80.45185 | 36026 ft | 421 kts | 235° |
| 2026-05-08 06:30 | 36.85544 | -80.50100 | 36029 ft | 420 kts | 235° |
| 2026-05-08 06:31 | 36.81204 | -80.55019 | 36032 ft | 419 kts | 235° |
| 2026-05-08 06:31 | 36.76906 | -80.59883 | 35875 ft | 412 kts | 235° |
| 2026-05-08 06:32 | 36.72710 | -80.64626 | 35136 ft | 401 kts | 235° |
| 2026-05-08 06:32 | 36.70684 | -80.66897 | 34738 ft | 390 kts | 236° |
| 2026-05-08 06:32 | 36.68684 | -80.69180 | 34093 ft | 390 kts | 236° |
| 2026-05-08 06:33 | 36.66664 | -80.71448 | 33480 ft | 384 kts | 235° |
| 2026-05-08 06:33 | 36.64690 | -80.73673 | 32712 ft | 384 kts | 235° |
| 2026-05-08 06:33 | 36.62722 | -80.75886 | 31953 ft | 384 kts | 234° |
| 2026-05-08 06:33 | 36.60722 | -80.78135 | 31173 ft | 385 kts | 234° |
| 2026-05-08 06:34 | 36.58745 | -80.80355 | 30464 ft | 385 kts | 233° |
| 2026-05-08 06:34 | 36.56746 | -80.82594 | 29622 ft | 386 kts | 233° |
| 2026-05-08 06:34 | 36.54764 | -80.84818 | 29014 ft | 383 kts | 233° |
| 2026-05-08 06:34 | 36.52767 | -80.87059 | 28357 ft | 380 kts | 233° |
| 2026-05-08 06:35 | 36.50824 | -80.89240 | 27704 ft | 378 kts | 232° |
| 2026-05-08 06:35 | 36.48874 | -80.91422 | 27025 ft | 376 kts | 232° |
| 2026-05-08 06:35 | 36.46931 | -80.93598 | 26433 ft | 374 kts | 232° |
| 2026-05-08 06:35 | 36.45013 | -80.95740 | 25793 ft | 373 kts | 231° |
| 2026-05-08 06:36 | 36.43034 | -80.97961 | 25365 ft | 385 kts | 231° |
| 2026-05-08 06:36 | 36.41060 | -81.00149 | 25219 ft | 375 kts | 231° |
| 2026-05-08 06:36 | 36.39136 | -81.02292 | 25151 ft | 370 kts | 231° |
| 2026-05-08 06:36 | 36.37232 | -81.04430 | 25120 ft | 370 kts | 231° |
| 2026-05-08 06:37 | 36.35286 | -81.06599 | 25108 ft | 372 kts | 231° |
| 2026-05-08 06:37 | 36.33362 | -81.08735 | 25091 ft | 369 kts | 231° |
| 2026-05-08 06:37 | 36.31497 | -81.10798 | 25078 ft | 352 kts | 231° |
| 2026-05-08 06:37 | 36.29724 | -81.12773 | 25072 ft | 337 kts | 232° |
| 2026-05-08 06:38 | 36.28003 | -81.14694 | 25072 ft | 323 kts | 232° |
| 2026-05-08 06:38 | 36.26372 | -81.16505 | 25074 ft | 309 kts | 232° |
| 2026-05-08 06:38 | 36.24801 | -81.18252 | 25073 ft | 299 kts | 233° |
| 2026-05-08 06:38 | 36.23274 | -81.19950 | 25079 ft | 293 kts | 233° |
| 2026-05-08 06:39 | 36.21756 | -81.21639 | 25093 ft | 293 kts | 233° |
| 2026-05-08 06:39 | 36.20220 | -81.23338 | 25098 ft | 294 kts | 233° |
| 2026-05-08 06:39 | 36.18698 | -81.25020 | 25091 ft | 295 kts | 233° |
| 2026-05-08 06:39 | 36.17158 | -81.26720 | 25083 ft | 295 kts | 233° |
| 2026-05-08 06:40 | 36.15626 | -81.28414 | 25072 ft | 294 kts | 233° |
| 2026-05-08 06:40 | 36.14096 | -81.30106 | 25075 ft | 293 kts | 233° |
| 2026-05-08 06:40 | 36.12578 | -81.31786 | 25058 ft | 294 kts | 233° |
| 2026-05-08 06:40 | 36.11045 | -81.33479 | 25043 ft | 295 kts | 232° |
| 2026-05-08 06:41 | 36.09538 | -81.35168 | 25032 ft | 291 kts | 236° |
| 2026-05-08 06:41 | 36.08225 | -81.37035 | 25007 ft | 280 kts | 249° |
| 2026-05-08 06:41 | 36.07550 | -81.39221 | 25065 ft | 273 kts | 255° |
| 2026-05-08 06:41 | 36.06454 | -81.41215 | 25065 ft | 292 kts | 234° |
| 2026-05-08 06:42 | 36.04892 | -81.42877 | 25069 ft | 299 kts | 230° |
| 2026-05-08 06:42 | 36.03246 | -81.44435 | 25053 ft | 301 kts | 228° |
| 2026-05-08 06:42 | 36.01548 | -81.45966 | 25025 ft | 300 kts | 227° |
| 2026-05-08 06:42 | 35.99843 | -81.47470 | 25051 ft | 300 kts | 227° |
| 2026-05-08 06:43 | 35.98144 | -81.48950 | 25028 ft | 301 kts | 227° |
| 2026-05-08 06:43 | 35.96421 | -81.50449 | 25028 ft | 302 kts | 227° |
| 2026-05-08 06:43 | 35.94703 | -81.51938 | 25047 ft | 302 kts | 227° |
| 2026-05-08 06:43 | 35.92978 | -81.53428 | 25070 ft | 302 kts | 227° |
| 2026-05-08 06:44 | 35.91257 | -81.54912 | 25076 ft | 302 kts | 227° |
| 2026-05-08 06:44 | 35.89570 | -81.56429 | 25063 ft | 293 kts | 235° |
| 2026-05-08 06:44 | 35.88519 | -81.58412 | 25106 ft | 271 kts | 259° |
| 2026-05-08 06:44 | 35.88389 | -81.60704 | 25165 ft | 269 kts | 274° |
| 2026-05-08 06:45 | 35.88522 | -81.63001 | 25113 ft | 271 kts | 274° |
| 2026-05-08 06:45 | 35.88639 | -81.65332 | 24814 ft | 272 kts | 272° |
| 2026-05-08 06:45 | 35.88685 | -81.67684 | 24442 ft | 273 kts | 270° |
| 2026-05-08 06:45 | 35.88557 | -81.70008 | 24056 ft | 275 kts | 259° |
| 2026-05-08 06:46 | 35.87904 | -81.72232 | 23720 ft | 282 kts | 250° |
| 2026-05-08 06:46 | 35.86955 | -81.74412 | 23544 ft | 286 kts | 245° |
| 2026-05-08 06:46 | 35.85860 | -81.76439 | 23444 ft | 284 kts | 242° |
| 2026-05-08 06:46 | 35.84697 | -81.78391 | 23399 ft | 284 kts | 240° |
| 2026-05-08 06:47 | 35.83402 | -81.80251 | 23379 ft | 287 kts | 234° |
| 2026-05-08 06:47 | 35.81958 | -81.81978 | 23370 ft | 288 kts | 234° |
| 2026-05-08 06:47 | 35.80566 | -81.83733 | 23356 ft | 288 kts | 234° |
| 2026-05-08 06:47 | 35.79139 | -81.85465 | 23348 ft | 290 kts | 233° |
| 2026-05-08 06:48 | 35.77670 | -81.87191 | 23339 ft | 290 kts | 233° |
| 2026-05-08 06:48 | 35.76234 | -81.88903 | 23323 ft | 288 kts | 234° |
| 2026-05-08 06:48 | 35.74785 | -81.90647 | 23330 ft | 288 kts | 234° |
| 2026-05-08 06:48 | 35.73356 | -81.92365 | 23325 ft | 289 kts | 233° |
| 2026-05-08 06:49 | 35.71918 | -81.94083 | 23318 ft | 289 kts | 233° |
| 2026-05-08 06:49 | 35.70470 | -81.95812 | 23316 ft | 289 kts | 234° |
| 2026-05-08 06:49 | 35.69010 | -81.97560 | 23320 ft | 289 kts | 233° |
| 2026-05-08 06:49 | 35.67576 | -81.99277 | 23329 ft | 289 kts | 233° |
| 2026-05-08 06:50 | 35.66132 | -82.01000 | 23321 ft | 288 kts | 234° |
| 2026-05-08 06:50 | 35.64687 | -82.02723 | 23323 ft | 288 kts | 234° |
| 2026-05-08 06:50 | 35.63256 | -82.04433 | 23326 ft | 289 kts | 234° |
| 2026-05-08 06:50 | 35.61818 | -82.06150 | 23331 ft | 289 kts | 233° |
| 2026-05-08 06:51 | 35.60365 | -82.07881 | 23343 ft | 289 kts | 233° |
| 2026-05-08 06:51 | 35.58928 | -82.09590 | 23331 ft | 288 kts | 234° |
| 2026-05-08 06:51 | 35.57486 | -82.11312 | 23350 ft | 299 kts | 233° |
| 2026-05-08 06:51 | 35.55905 | -82.13217 | 23413 ft | 330 kts | 232° |
| 2026-05-08 06:52 | 35.54233 | -82.15166 | 23393 ft | 332 kts | 232° |
| 2026-05-08 06:52 | 35.52591 | -82.17112 | 23371 ft | 327 kts | 233° |
| 2026-05-08 06:52 | 35.50965 | -82.19056 | 23303 ft | 321 kts | 233° |
| 2026-05-08 06:52 | 35.49370 | -82.20960 | 23318 ft | 321 kts | 233° |
| 2026-05-08 06:53 | 35.47764 | -82.22866 | 23328 ft | 322 kts | 232° |
| 2026-05-08 06:53 | 35.46142 | -82.24788 | 23362 ft | 323 kts | 232° |
| 2026-05-08 06:53 | 35.44503 | -82.26651 | 23345 ft | 325 kts | 231° |
| 2026-05-08 06:53 | 35.42869 | -82.28544 | 23361 ft | 322 kts | 234° |
| 2026-05-08 06:54 | 35.41327 | -82.30523 | 23321 ft | 320 kts | 234° |
| 2026-05-08 06:54 | 35.39771 | -82.32504 | 23356 ft | 321 kts | 234° |
| 2026-05-08 06:54 | 35.38204 | -82.34449 | 23354 ft | 322 kts | 233° |
| 2026-05-08 06:54 | 35.36632 | -82.36393 | 23353 ft | 321 kts | 234° |
| 2026-05-08 06:55 | 35.35049 | -82.38364 | 23347 ft | 321 kts | 234° |
| 2026-05-08 06:55 | 35.33503 | -82.40289 | 23349 ft | 320 kts | 234° |
| 2026-05-08 06:55 | 35.31932 | -82.42239 | 23348 ft | 320 kts | 234° |
| 2026-05-08 06:55 | 35.30369 | -82.44177 | 23347 ft | 320 kts | 234° |
| 2026-05-08 06:56 | 35.28794 | -82.46128 | 23355 ft | 320 kts | 234° |
| 2026-05-08 06:56 | 35.27219 | -82.48078 | 23352 ft | 320 kts | 234° |
| 2026-05-08 06:56 | 35.25665 | -82.50001 | 23344 ft | 320 kts | 234° |
| 2026-05-08 06:56 | 35.24088 | -82.51953 | 23345 ft | 320 kts | 234° |
| 2026-05-08 06:57 | 35.22525 | -82.53887 | 23322 ft | 321 kts | 234° |
| 2026-05-08 06:57 | 35.20954 | -82.55828 | 23342 ft | 320 kts | 234° |
| 2026-05-08 06:57 | 35.19917 | -82.57107 | 23338 ft | 319 kts | 234° |
| 2026-05-08 06:57 | 35.18380 | -82.59050 | 23344 ft | 317 kts | 236° |
| 2026-05-08 06:58 | 35.16844 | -82.61003 | 23337 ft | 320 kts | 233° |
| 2026-05-08 06:58 | 35.15217 | -82.62897 | 23329 ft | 322 kts | 232° |
| 2026-05-08 06:58 | 35.13590 | -82.64797 | 23325 ft | 321 kts | 233° |
| 2026-05-08 06:58 | 35.11995 | -82.66699 | 23319 ft | 320 kts | 233° |
| 2026-05-08 06:59 | 35.10403 | -82.68597 | 23315 ft | 320 kts | 233° |
| 2026-05-08 06:59 | 35.08806 | -82.70493 | 23318 ft | 321 kts | 233° |
| 2026-05-08 06:59 | 35.07218 | -82.72373 | 23314 ft | 320 kts | 233° |
| 2026-05-08 06:59 | 35.05603 | -82.74290 | 23256 ft | 319 kts | 233° |
| 2026-05-08 07:00 | 35.04024 | -82.76164 | 22739 ft | 320 kts | 233° |
| 2026-05-08 07:00 | 35.02435 | -82.78046 | 22280 ft | 319 kts | 233° |
| 2026-05-08 07:00 | 35.00829 | -82.79947 | 21845 ft | 318 kts | 232° |
| 2026-05-08 07:00 | 34.99232 | -82.81832 | 21407 ft | 317 kts | 232° |
| 2026-05-08 07:01 | 34.97674 | -82.83680 | 20978 ft | 315 kts | 232° |
| 2026-05-08 07:01 | 34.96108 | -82.85570 | 20547 ft | 314 kts | 233° |
| 2026-05-08 07:01 | 34.94527 | -82.87448 | 20260 ft | 318 kts | 231° |
| 2026-05-08 07:01 | 34.92933 | -82.89265 | 20150 ft | 313 kts | 231° |
| 2026-05-08 07:02 | 34.91355 | -82.91085 | 20097 ft | 311 kts | 232° |
| 2026-05-08 07:02 | 34.89796 | -82.92905 | 20048 ft | 311 kts | 232° |
| 2026-05-08 07:02 | 34.88207 | -82.94747 | 20040 ft | 313 kts | 232° |
| 2026-05-08 07:02 | 34.86637 | -82.96560 | 20047 ft | 314 kts | 232° |
| 2026-05-08 07:03 | 34.85041 | -82.98405 | 20045 ft | 314 kts | 232° |
| 2026-05-08 07:03 | 34.83459 | -83.00236 | 20038 ft | 313 kts | 232° |
| 2026-05-08 07:03 | 34.81875 | -83.02068 | 20040 ft | 313 kts | 232° |
| 2026-05-08 07:03 | 34.80288 | -83.03903 | 20037 ft | 314 kts | 232° |
| 2026-05-08 07:04 | 34.78713 | -83.05721 | 20021 ft | 315 kts | 232° |
| 2026-05-08 07:04 | 34.77129 | -83.07548 | 19767 ft | 314 kts | 231° |
| 2026-05-08 07:04 | 34.75531 | -83.09392 | 19335 ft | 314 kts | 231° |
| 2026-05-08 07:04 | 34.73940 | -83.11226 | 18922 ft | 313 kts | 231° |
| 2026-05-08 07:05 | 34.72362 | -83.13043 | 18536 ft | 313 kts | 231° |
| 2026-05-08 07:05 | 34.70788 | -83.14858 | 18129 ft | 312 kts | 231° |
| 2026-05-08 07:05 | 34.69213 | -83.16669 | 17723 ft | 311 kts | 231° |
| 2026-05-08 07:05 | 34.67647 | -83.18468 | 17365 ft | 312 kts | 231° |
| 2026-05-08 07:06 | 34.66068 | -83.20284 | 17189 ft | 310 kts | 231° |
| 2026-05-08 07:06 | 34.64515 | -83.22066 | 17119 ft | 306 kts | 231° |
| 2026-05-08 07:06 | 34.62975 | -83.23838 | 17060 ft | 307 kts | 231° |
| 2026-05-08 07:06 | 34.61422 | -83.25624 | 17036 ft | 307 kts | 231° |
| 2026-05-08 07:07 | 34.59819 | -83.27472 | 17049 ft | 330 kts | 231° |
| 2026-05-08 07:07 | 34.58142 | -83.29368 | 17032 ft | 330 kts | 230° |
| 2026-05-08 07:07 | 34.56476 | -83.31260 | 17022 ft | 325 kts | 231° |
| 2026-05-08 07:07 | 34.54843 | -83.33159 | 17014 ft | 322 kts | 231° |
| 2026-05-08 07:08 | 34.53221 | -83.35041 | 17008 ft | 322 kts | 230° |
| 2026-05-08 07:08 | 34.51590 | -83.36914 | 17006 ft | 323 kts | 230° |
| 2026-05-08 07:08 | 34.49954 | -83.38788 | 17007 ft | 323 kts | 230° |
| 2026-05-08 07:08 | 34.48341 | -83.40642 | 16992 ft | 322 kts | 230° |
| 2026-05-08 07:09 | 34.46707 | -83.42521 | 16988 ft | 323 kts | 230° |
| 2026-05-08 07:09 | 34.45075 | -83.44395 | 16999 ft | 323 kts | 230° |
| 2026-05-08 07:09 | 34.43440 | -83.46272 | 17002 ft | 323 kts | 230° |
| 2026-05-08 07:09 | 34.41805 | -83.48143 | 16999 ft | 322 kts | 230° |
| 2026-05-08 07:10 | 34.40171 | -83.50015 | 17006 ft | 323 kts | 230° |
| 2026-05-08 07:10 | 34.38556 | -83.51866 | 17003 ft | 324 kts | 230° |
| 2026-05-08 07:10 | 34.36916 | -83.53743 | 16867 ft | 323 kts | 230° |
| 2026-05-08 07:10 | 34.35286 | -83.55607 | 16416 ft | 322 kts | 230° |
| 2026-05-08 07:11 | 34.33640 | -83.57488 | 15951 ft | 321 kts | 230° |
| 2026-05-08 07:11 | 34.32031 | -83.59332 | 15520 ft | 320 kts | 231° |
| 2026-05-08 07:11 | 34.30458 | -83.61232 | 15113 ft | 318 kts | 231° |
| 2026-05-08 07:11 | 34.28822 | -83.63045 | 14690 ft | 319 kts | 227° |
| 2026-05-08 07:12 | 34.27135 | -83.64791 | 14336 ft | 323 kts | 227° |
| 2026-05-08 07:12 | 34.25439 | -83.66575 | 14162 ft | 318 kts | 227° |
| 2026-05-08 07:12 | 34.23796 | -83.68330 | 14081 ft | 316 kts | 227° |
| 2026-05-08 07:12 | 34.22133 | -83.70108 | 13988 ft | 317 kts | 227° |
| 2026-05-08 07:13 | 34.20486 | -83.71858 | 13568 ft | 317 kts | 227° |
| 2026-05-08 07:13 | 34.18821 | -83.73621 | 13116 ft | 316 kts | 227° |
| 2026-05-08 07:13 | 34.17170 | -83.75377 | 12686 ft | 315 kts | 227° |
| 2026-05-08 07:13 | 34.15541 | -83.77109 | 12321 ft | 315 kts | 226° |
| 2026-05-08 07:14 | 34.13882 | -83.78868 | 12162 ft | 313 kts | 226° |
| 2026-05-08 07:14 | 34.12244 | -83.80584 | 12078 ft | 312 kts | 226° |
| 2026-05-08 07:14 | 34.10618 | -83.82285 | 12039 ft | 304 kts | 227° |
| 2026-05-08 07:14 | 34.09114 | -83.83913 | 11987 ft | 285 kts | 227° |
| 2026-05-08 07:15 | 34.07655 | -83.85504 | 11993 ft | 281 kts | 227° |
| 2026-05-08 07:15 | 34.06203 | -83.87069 | 11997 ft | 277 kts | 227° |
| 2026-05-08 07:15 | 34.04765 | -83.88605 | 11942 ft | 277 kts | 227° |
| 2026-05-08 07:15 | 34.03332 | -83.90139 | 11640 ft | 276 kts | 227° |
| 2026-05-08 07:16 | 34.01892 | -83.91682 | 11356 ft | 274 kts | 227° |
| 2026-05-08 07:16 | 34.00466 | -83.93211 | 11083 ft | 275 kts | 227° |
| 2026-05-08 07:16 | 33.98995 | -83.94699 | 10923 ft | 275 kts | 220° |
| 2026-05-08 07:16 | 33.97291 | -83.95763 | 10858 ft | 280 kts | 208° |
| 2026-05-08 07:17 | 33.95405 | -83.96440 | 10710 ft | 289 kts | 198° |
| 2026-05-08 07:17 | 33.93390 | -83.96689 | 10364 ft | 296 kts | 187° |
| 2026-05-08 07:17 | 33.91303 | -83.96600 | 10041 ft | 296 kts | 184° |
| 2026-05-08 07:17 | 33.89278 | -83.96483 | 9696 ft | 294 kts | 184° |
| 2026-05-08 07:18 | 33.87237 | -83.96395 | 9519 ft | 286 kts | 185° |
| 2026-05-08 07:18 | 33.85295 | -83.96317 | 9512 ft | 274 kts | 186° |
| 2026-05-08 07:18 | 33.83411 | -83.96245 | 9465 ft | 265 kts | 186° |
| 2026-05-08 07:18 | 33.81582 | -83.96171 | 9189 ft | 263 kts | 186° |
| 2026-05-08 07:19 | 33.79797 | -83.96097 | 9167 ft | 251 kts | 186° |
| 2026-05-08 07:19 | 33.78048 | -83.96033 | 8772 ft | 253 kts | 189° |
| 2026-05-08 07:19 | 33.76425 | -83.96551 | 8377 ft | 236 kts | 219° |
| 2026-05-08 07:19 | 33.75356 | -83.97943 | 8163 ft | 224 kts | 242° |
| 2026-05-08 07:20 | 33.74856 | -83.99650 | 7944 ft | 216 kts | 270° |
| 2026-05-08 07:20 | 33.75323 | -84.01333 | 7804 ft | 213 kts | 305° |
| 2026-05-08 07:20 | 33.76256 | -84.02581 | 7865 ft | 189 kts | 295° |
| 2026-05-08 07:20 | 33.76396 | -84.04013 | 7866 ft | 169 kts | 256° |
| 2026-05-08 07:21 | 33.75640 | -84.05103 | 7601 ft | 178 kts | 220° |
| 2026-05-08 07:21 | 33.74614 | -84.05876 | 7350 ft | 173 kts | 220° |
| 2026-05-08 07:21 | 33.73606 | -84.06609 | 7081 ft | 171 kts | 219° |
| 2026-05-08 07:21 | 33.72593 | -84.07329 | 6791 ft | 170 kts | 218° |
| 2026-05-08 07:22 | 33.71565 | -84.08049 | 6502 ft | 169 kts | 218° |
| 2026-05-08 07:22 | 33.70550 | -84.08757 | 6162 ft | 169 kts | 218° |
| 2026-05-08 07:22 | 33.69533 | -84.09478 | 5778 ft | 173 kts | 218° |
| 2026-05-08 07:22 | 33.68509 | -84.10263 | 5441 ft | 173 kts | 220° |
| 2026-05-08 07:23 | 33.67529 | -84.11111 | 5117 ft | 173 kts | 223° |
| 2026-05-08 07:23 | 33.66611 | -84.12035 | 4792 ft | 173 kts | 227° |
| 2026-05-08 07:23 | 33.65790 | -84.13080 | 4461 ft | 172 kts | 242° |
| 2026-05-08 07:23 | 33.65327 | -84.14427 | 4216 ft | 174 kts | 257° |
| 2026-05-08 07:24 | 33.65062 | -84.15804 | 4087 ft | 167 kts | 263° |
| 2026-05-08 07:24 | 33.64911 | -84.17181 | 4039 ft | 165 kts | 271° |
| 2026-05-08 07:24 | 33.64910 | -84.18546 | 4023 ft | 164 kts | 274° |
| 2026-05-08 07:24 | 33.64919 | -84.19932 | 4027 ft | 166 kts | 272° |
| 2026-05-08 07:25 | 33.64926 | -84.21324 | 3975 ft | 167 kts | 275° |
| 2026-05-08 07:25 | 33.64956 | -84.22701 | 3930 ft | 163 kts | 274° |
| 2026-05-08 07:25 | 33.64955 | -84.25441 | 3763 ft | 166 kts | 274° |
| 2026-05-08 07:26 | 33.64949 | -84.26827 | 3760 ft | 163 kts | 274° |
| 2026-05-08 07:26 | 33.64947 | -84.28147 | 3684 ft | 151 kts | 274° |
| 2026-05-08 07:26 | 33.64946 | -84.29380 | 3366 ft | 146 kts | 274° |
| 2026-05-08 07:26 | 33.64928 | -84.30758 | 3044 ft | 177 kts | 274° |
| 2026-05-08 07:27 | 33.64941 | -84.32216 | 2689 ft | 171 kts | 276° |
| 2026-05-08 07:27 | 33.64964 | -84.33607 | 2465 ft | 168 kts | 276° |
| 2026-05-08 07:27 | 33.64960 | -84.34983 | 2257 ft | 162 kts | 274° |
| 2026-05-08 07:27 | 33.64940 | -84.36318 | 1899 ft | 158 kts | 273° |
| 2026-05-08 07:28 | 33.64934 | -84.37596 | 1640 ft | 149 kts | 274° |
| 2026-05-08 07:28 | 33.64958 | -84.38838 | 1427 ft | 146 kts | 272° |
| 2026-05-08 07:28 | 33.64958 | -84.40033 | 1218 ft | 141 kts | 271° |
| 2026-05-08 07:28 | 33.64959 | -84.41199 | 1017 ft | 136 kts | 270° |
| 2026-05-08 07:29 | 33.64963 | -84.41858 | 1014 ft | 116 kts | 271° |
| 2026-05-08 07:29 | 33.64958 | -84.42415 | 1012 ft | 36 kts | 270° |
| 2026-05-08 07:29 | 33.64943 | -84.42608 | 1013 ft | 18 kts | 255° |
| 2026-05-08 07:29 | 33.64911 | -84.42715 | 1013 ft | 12 kts | 246° |
| 2026-05-08 07:30 | 33.64875 | -84.42799 | 1012 ft | 11 kts | 242° |
| 2026-05-08 07:30 | 33.64841 | -84.42873 | 1012 ft | 9 kts | 241° |
| 2026-05-08 07:30 | 33.64813 | -84.42935 | 1012 ft | 8 kts | 242° |
| 2026-05-08 07:30 | 33.64798 | -84.42991 | 1012 ft | 7 kts | 259° |
| 2026-05-08 07:31 | 33.64791 | -84.43047 | 1013 ft | 7 kts | 264° |
| 2026-05-08 07:31 | 33.64776 | -84.43103 | 1013 ft | 7 kts | 235° |
| 2026-05-08 07:31 | 33.64736 | -84.43128 | 1013 ft | 7 kts | 197° |
| 2026-05-08 07:31 | 33.64683 | -84.43148 | 1013 ft | 9 kts | 205° |
| 2026-05-08 07:32 | 33.64637 | -84.43201 | 1014 ft | 10 kts | 233° |
| 2026-05-08 07:32 | 33.64595 | -84.43279 | 1013 ft | 9 kts | 239° |
| 2026-05-08 07:32 | 33.64562 | -84.43351 | 1013 ft | 11 kts | 245° |
| 2026-05-08 07:32 | 33.64530 | -84.43405 | 1012 ft | 7 kts | 215° |
| 2026-05-08 07:33 | 33.64479 | -84.43422 | 1012 ft | 8 kts | 187° |
| 2026-05-08 07:33 | 33.64418 | -84.43425 | 1012 ft | 9 kts | 180° |
| 2026-05-08 07:33 | 33.64349 | -84.43416 | 1012 ft | 11 kts | 167° |
| 2026-05-08 07:33 | 33.64274 | -84.43393 | 1012 ft | 12 kts | 171° |
| 2026-05-08 07:34 | 33.64187 | -84.43394 | 1012 ft | 13 kts | 182° |
| 2026-05-08 07:34 | 33.64094 | -84.43397 | 1012 ft | 13 kts | 180° |
| 2026-05-08 07:34 | 33.64001 | -84.43397 | 1012 ft | 14 kts | 180° |
| 2026-05-08 07:34 | 33.63927 | -84.43396 | 1012 ft | 11 kts | 179° |
| 2026-05-08 07:35 | 33.63845 | -84.43395 | 1012 ft | 12 kts | 179° |
| 2026-05-08 07:35 | 33.63757 | -84.43393 | 1012 ft | 11 kts | 179° |
| 2026-05-08 07:35 | 33.63686 | -84.43369 | 1012 ft | 10 kts | 136° |
| 2026-05-08 07:35 | 33.63667 | -84.43295 | 1012 ft | 10 kts | 95° |
| 2026-05-08 07:36 | 33.63665 | -84.43213 | 1012 ft | 10 kts | 91° |
| 2026-05-08 07:36 | 33.63664 | -84.43124 | 1012 ft | 11 kts | 91° |
| 2026-05-08 07:36 | 33.63664 | -84.43027 | 1012 ft | 12 kts | 89° |
| 2026-05-08 07:36 | 33.63665 | -84.42922 | 1012 ft | 13 kts | 89° |
| 2026-05-08 07:37 | 33.63666 | -84.42811 | 1012 ft | 14 kts | 90° |
| 2026-05-08 07:37 | 33.63659 | -84.42695 | 1012 ft | 14 kts | 93° |
| 2026-05-08 07:37 | 33.63657 | -84.42574 | 1013 ft | 15 kts | 90° |
| 2026-05-08 07:37 | 33.63657 | -84.42477 | 1012 ft | 9 kts | 84° |
| 2026-05-08 07:38 | 33.63692 | -84.42432 | 1012 ft | 7 kts | 22° |
| 2026-05-08 07:38 | 33.63741 | -84.42423 | 1012 ft | 7 kts | 358° |
| 2026-05-08 07:38 | 33.63775 | -84.42447 | 1012 ft | 5 kts | 311° |
| 2026-05-08 07:38 | 33.63783 | -84.42477 | 1012 ft | 3 kts | 275° |
| 2026-05-08 07:39 | 33.63782 | -84.42495 | 1012 ft | 2 kts | 266° |
| 2026-05-08 07:39 | 33.63782 | -84.42503 | 1012 ft | 1 kts | 268° |
| 2026-05-08 07:39 | 33.63781 | -84.42508 | 1012 ft | 0 kts | 268° |
| 2026-05-08 07:39 | 33.63781 | -84.42512 | 1012 ft | 0 kts | 268° |
| 2026-05-08 07:40 | 33.63781 | -84.42515 | 1012 ft | 0 kts | 268° |
| 2026-05-08 07:41 | 33.89268 | -83.96483 | 9706 ft | 294 kts | 184° |
| 2026-05-08 07:41 | 33.69468 | -84.09526 | 5766 ft | 176 kts | 218° |
| 2026-05-08 07:41 | 33.69069 | -84.09826 | 5643 ft | 174 kts | 218° |
| 2026-05-08 07:41 | 33.68073 | -84.10627 | 5304 ft | 173 kts | 221° |